createdAt,value
2022-09-15T00:02:07.301Z,16.53
2022-09-15T00:04:36.828Z,16.52
2022-09-15T00:07:06.650Z,16.50
2022-09-15T00:09:37.149Z,16.45
2022-09-15T00:12:07.117Z,16.42
2022-09-15T00:14:36.744Z,16.42
2022-09-15T00:17:06.287Z,16.38
2022-09-15T00:19:36.031Z,16.31
2022-09-15T00:22:05.833Z,16.28
2022-09-15T00:24:35.441Z,16.25
2022-09-15T00:27:05.430Z,16.20
2022-09-15T00:29:35.249Z,16.08
2022-09-15T00:32:05.434Z,16.01
2022-09-15T00:34:35.772Z,15.98
2022-09-15T00:37:05.870Z,15.92
2022-09-15T00:39:35.452Z,15.89
2022-09-15T00:42:06.340Z,15.88
2022-09-15T00:44:38.681Z,15.86
2022-09-15T00:47:19.294Z,15.84
2022-09-15T00:49:59.182Z,15.83
2022-09-15T00:52:40.089Z,15.82
2022-09-15T00:55:17.097Z,15.82
2022-09-15T00:58:09.953Z,15.86
2022-09-15T01:00:45.257Z,15.83
2022-09-15T01:03:15.141Z,15.81
2022-09-15T01:05:54.688Z,15.79
2022-09-15T01:09:10.346Z,15.70
2022-09-15T01:11:41.271Z,15.66
2022-09-15T01:14:10.997Z,15.62
2022-09-15T01:17:05.093Z,15.56
2022-09-15T01:19:46.348Z,15.48
2022-09-15T01:22:42.677Z,15.39
2022-09-15T01:25:29.916Z,15.27
2022-09-15T01:28:43.855Z,15.15
2022-09-15T01:31:24.737Z,15.04
2022-09-15T01:34:11.131Z,14.97
2022-09-15T01:36:56.606Z,14.96
2022-09-15T01:39:33.488Z,14.95
2022-09-15T01:42:09.899Z,14.93
2022-09-15T01:44:59.966Z,14.90
2022-09-15T01:47:32.177Z,14.88
2022-09-15T01:50:27.730Z,14.84
2022-09-15T01:53:04.041Z,14.79
2022-09-15T01:55:45.621Z,14.72
2022-09-15T01:58:14.764Z,14.67
2022-09-15T02:00:52.388Z,14.62
2022-09-15T02:03:41.708Z,14.52
2022-09-15T02:06:25.745Z,14.48
2022-09-15T02:09:19.116Z,14.48
2022-09-15T02:12:22.027Z,14.48
2022-09-15T02:15:16.024Z,14.49
2022-09-15T02:17:56.397Z,14.47
2022-09-15T02:21:00.486Z,14.39
2022-09-15T02:23:42.239Z,14.22
2022-09-15T02:26:18.749Z,14.13
2022-09-15T02:28:50.561Z,14.03
2022-09-15T02:31:24.229Z,13.98
2022-09-15T02:34:04.881Z,13.94
2022-09-15T02:36:34.856Z,13.93
2022-09-15T02:39:13.616Z,13.93
2022-09-15T02:41:43.343Z,13.94
2022-09-15T02:44:17.050Z,13.94
2022-09-15T02:46:46.706Z,13.94
2022-09-15T02:49:15.842Z,13.93
2022-09-15T02:51:48.676Z,13.92
2022-09-15T02:54:20.884Z,13.93
2022-09-15T02:56:50.319Z,13.85
2022-09-15T02:59:20.212Z,13.82
2022-09-15T03:01:49.475Z,13.78
2022-09-15T03:04:18.653Z,13.78
2022-09-15T03:06:48.017Z,13.78
2022-09-15T03:09:17.427Z,13.72
2022-09-15T03:11:46.753Z,13.71
2022-09-15T03:14:16.164Z,13.73
2022-09-15T03:16:45.577Z,13.75
2022-09-15T03:19:15.027Z,13.77
2022-09-15T03:21:44.614Z,13.77
2022-09-15T03:24:16.599Z,13.75
2022-09-15T03:26:46.733Z,13.70
2022-09-15T03:29:16.345Z,13.65
2022-09-15T03:31:45.686Z,13.61
2022-09-15T03:34:15.209Z,13.59
2022-09-15T03:36:44.577Z,13.56
2022-09-15T03:39:17.004Z,13.57
2022-09-15T03:41:46.227Z,13.60
2022-09-15T03:44:15.381Z,13.61
2022-09-15T03:46:44.481Z,13.64
2022-09-15T03:49:14.441Z,13.64
2022-09-15T03:51:43.688Z,13.66
2022-09-15T03:54:13.654Z,13.65
2022-09-15T03:56:43.053Z,13.64
2022-09-15T03:59:12.586Z,13.60
2022-09-15T04:01:41.658Z,13.62
2022-09-15T04:04:11.797Z,13.64
2022-09-15T04:06:42.285Z,13.63
2022-09-15T04:09:11.633Z,13.56
2022-09-15T04:11:41.599Z,13.41
2022-09-15T04:14:10.956Z,13.23
2022-09-15T04:16:40.811Z,13.05
2022-09-15T04:19:10.438Z,12.91
2022-09-15T04:21:43.475Z,12.82
2022-09-15T04:24:12.673Z,12.71
2022-09-15T04:26:42.141Z,12.63
2022-09-15T04:29:17.438Z,12.57
2022-09-15T04:31:47.839Z,12.53
2022-09-15T04:34:16.961Z,12.52
2022-09-15T04:36:46.447Z,12.47
2022-09-15T04:39:16.316Z,12.40
2022-09-15T04:41:45.381Z,12.33
2022-09-15T04:44:14.565Z,12.28
2022-09-15T04:46:44.039Z,12.28
2022-09-15T04:49:13.927Z,12.31
2022-09-15T04:51:43.161Z,12.28
2022-09-15T04:54:12.349Z,12.30
2022-09-15T04:56:41.616Z,12.29
2022-09-15T04:59:18.404Z,12.31
2022-09-15T05:01:48.774Z,12.30
2022-09-15T05:04:17.842Z,12.33
2022-09-15T05:06:47.145Z,12.37
2022-09-15T05:09:16.903Z,12.39
2022-09-15T05:11:46.161Z,12.40
2022-09-15T05:14:15.634Z,12.39
2022-09-15T05:16:45.169Z,12.38
2022-09-15T05:19:14.522Z,12.36
2022-09-15T05:21:44.340Z,12.36
2022-09-15T05:24:13.442Z,12.35
2022-09-15T05:26:42.875Z,12.34
2022-09-15T05:29:11.974Z,12.31
2022-09-15T05:31:41.134Z,12.32
2022-09-15T05:34:11.539Z,12.31
2022-09-15T05:36:40.694Z,12.30
2022-09-15T05:39:10.036Z,12.27
2022-09-15T05:41:39.319Z,12.27
2022-09-15T05:44:08.387Z,12.23
2022-09-15T05:46:37.596Z,12.15
2022-09-15T05:49:07.623Z,12.07
2022-09-15T05:51:37.738Z,12.03
2022-09-15T05:54:07.778Z,12.02
2022-09-15T05:56:36.884Z,12.04
2022-09-15T05:59:06.261Z,12.01
2022-09-15T06:01:35.631Z,11.91
2022-09-15T06:04:04.824Z,11.81
2022-09-15T06:06:34.718Z,11.73
2022-09-15T06:09:07.992Z,11.65
2022-09-15T06:11:37.469Z,11.59
2022-09-15T06:14:07.192Z,11.54
2022-09-15T06:16:37.374Z,11.50
2022-09-15T06:19:07.519Z,11.49
2022-09-15T06:21:36.862Z,11.46
2022-09-15T06:24:08.047Z,11.40
2022-09-15T06:26:38.006Z,11.34
2022-09-15T06:29:07.869Z,11.24
2022-09-15T06:31:37.417Z,11.15
2022-09-15T06:34:07.741Z,11.10
2022-09-15T06:36:40.086Z,11.02
2022-09-15T06:39:09.705Z,10.98
2022-09-15T06:41:58.811Z,10.94
2022-09-15T06:44:28.527Z,10.88
2022-09-15T06:46:57.653Z,10.79
2022-09-15T06:49:27.186Z,10.68
2022-09-15T06:51:57.742Z,10.61
2022-09-15T06:54:26.968Z,10.58
2022-09-15T06:56:56.113Z,10.57
2022-09-15T06:59:25.705Z,10.55
2022-09-15T07:01:57.127Z,10.54
2022-09-15T07:04:26.912Z,10.54
2022-09-15T07:06:56.507Z,10.55
2022-09-15T07:09:25.655Z,10.59
2022-09-15T07:11:55.140Z,10.59
2022-09-15T07:14:24.343Z,10.57
2022-09-15T07:16:53.461Z,10.57
2022-09-15T07:19:22.842Z,10.58
2022-09-15T07:21:53.869Z,10.60
2022-09-15T07:24:23.030Z,10.60
2022-09-15T07:26:53.090Z,10.60
2022-09-15T07:29:22.541Z,10.62
2022-09-15T07:31:51.979Z,10.59
2022-09-15T07:34:22.338Z,10.63
2022-09-15T07:36:51.915Z,10.73
2022-09-15T07:39:21.017Z,10.75
2022-09-15T07:41:50.207Z,10.74
2022-09-15T07:44:19.377Z,10.73
2022-09-15T07:46:48.589Z,10.68
2022-09-15T07:49:18.023Z,10.67
2022-09-15T07:51:47.703Z,10.65
2022-09-15T07:54:21.083Z,10.62
2022-09-15T07:56:51.856Z,10.66
2022-09-15T07:59:21.002Z,10.62
2022-09-15T08:01:53.373Z,10.59
2022-09-15T08:04:22.732Z,10.60
2022-09-15T08:06:53.615Z,10.61
2022-09-15T08:09:23.041Z,10.61
2022-09-15T08:11:52.272Z,10.61
2022-09-15T08:14:21.326Z,10.57
2022-09-15T08:16:50.624Z,10.52
2022-09-15T08:19:21.910Z,10.48
2022-09-15T08:21:51.012Z,10.51
2022-09-15T08:24:20.252Z,10.52
2022-09-15T08:26:49.656Z,10.57
2022-09-15T08:29:20.701Z,10.64
2022-09-15T08:31:50.253Z,10.71
2022-09-15T08:34:19.986Z,10.74
2022-09-15T08:36:49.323Z,10.78
2022-09-15T08:39:19.267Z,10.75
2022-09-15T08:41:53.121Z,10.69
2022-09-15T08:44:51.500Z,10.70
2022-09-15T08:47:42.428Z,10.73
2022-09-15T08:50:36.877Z,10.79
2022-09-15T08:53:30.491Z,10.80
2022-09-15T08:56:09.888Z,10.78
2022-09-15T08:58:40.142Z,10.75
2022-09-15T09:01:52.142Z,10.74
2022-09-15T09:04:59.370Z,10.69
2022-09-15T09:08:35.394Z,10.63
2022-09-15T09:12:04.946Z,10.61
2022-09-15T09:15:07.678Z,10.65
2022-09-15T09:18:11.090Z,10.66
2022-09-15T09:20:50.965Z,10.67
2022-09-15T09:23:29.199Z,10.68
2022-09-15T09:25:59.731Z,10.63
2022-09-15T09:28:47.038Z,10.59
2022-09-15T09:31:24.339Z,10.58
2022-09-15T09:34:17.710Z,10.57
2022-09-15T09:36:46.935Z,10.56
2022-09-15T09:39:16.914Z,10.58
2022-09-15T09:41:47.162Z,10.60
2022-09-15T09:44:16.967Z,10.61
2022-09-15T09:46:47.789Z,10.59
2022-09-15T09:49:35.610Z,10.60
2022-09-15T09:52:06.110Z,10.59
2022-09-15T09:54:37.024Z,10.57
2022-09-15T09:57:15.584Z,10.55
2022-09-15T09:59:50.912Z,10.49
2022-09-15T10:02:22.716Z,10.46
2022-09-15T10:05:19.742Z,10.47
2022-09-15T10:07:49.779Z,10.45
2022-09-15T10:10:33.519Z,10.40
2022-09-15T10:13:05.478Z,10.33
2022-09-15T10:15:38.053Z,10.28
2022-09-15T10:18:07.953Z,10.23
2022-09-15T10:20:50.956Z,10.19
2022-09-15T10:23:19.943Z,10.20
2022-09-15T10:25:59.183Z,10.17
2022-09-15T10:28:30.435Z,10.13
2022-09-15T10:31:08.484Z,10.06
2022-09-15T10:33:42.892Z,9.96
2022-09-15T10:36:29.969Z,9.89
2022-09-15T10:40:01.711Z,9.78
2022-09-15T10:42:57.859Z,9.65
2022-09-15T10:45:29.232Z,9.61
2022-09-15T10:48:13.046Z,9.59
2022-09-15T10:50:42.404Z,9.54
2022-09-15T10:53:45.863Z,9.53
2022-09-15T10:56:38.320Z,9.51
2022-09-15T10:59:36.595Z,9.42
2022-09-15T11:02:27.476Z,9.25
2022-09-15T11:05:24.891Z,9.25
2022-09-15T11:08:42.128Z,9.21
2022-09-15T11:11:35.508Z,9.19
2022-09-15T11:14:34.892Z,9.15
2022-09-15T11:17:44.546Z,9.10
2022-09-15T11:20:36.354Z,9.08
2022-09-15T11:23:29.919Z,9.01
2022-09-15T11:26:09.353Z,8.94
2022-09-15T11:29:18.942Z,8.93
2022-09-15T11:31:56.644Z,8.93
2022-09-15T11:35:10.098Z,8.92
2022-09-15T11:37:47.214Z,8.81
2022-09-15T11:40:29.882Z,8.72
2022-09-15T11:43:18.698Z,8.69
2022-09-15T11:45:57.869Z,8.71
2022-09-15T11:48:43.613Z,8.69
2022-09-15T11:51:17.014Z,8.60
2022-09-15T11:54:32.821Z,8.59
2022-09-15T11:57:02.259Z,8.58
2022-09-15T11:59:45.588Z,8.52
2022-09-15T12:02:46.081Z,8.44
2022-09-15T12:05:59.307Z,8.43
2022-09-15T12:08:33.605Z,8.41
2022-09-15T12:11:10.428Z,8.39
2022-09-15T12:13:42.527Z,8.34
2022-09-15T12:16:13.462Z,8.35
2022-09-15T12:19:13.425Z,8.39
2022-09-15T12:22:16.221Z,8.35
2022-09-15T12:25:23.598Z,8.30
2022-09-15T12:28:23.944Z,8.22
2022-09-15T12:31:26.601Z,8.14
2022-09-15T12:34:36.253Z,8.12
2022-09-15T12:37:16.437Z,8.11
2022-09-15T12:39:48.641Z,8.09
2022-09-15T12:42:32.974Z,8.08
2022-09-15T12:45:26.536Z,8.04
2022-09-15T12:48:17.334Z,7.96
2022-09-15T12:51:06.288Z,7.89
2022-09-15T12:53:50.549Z,7.82
2022-09-15T12:56:35.539Z,7.80
2022-09-15T12:59:16.912Z,7.77
2022-09-15T13:01:52.778Z,7.71
2022-09-15T13:04:47.522Z,7.71
2022-09-15T13:07:22.129Z,7.72
2022-09-15T13:10:11.768Z,7.69
2022-09-15T13:12:50.838Z,7.65
2022-09-15T13:15:21.681Z,7.63
2022-09-15T13:17:51.942Z,7.61
2022-09-15T13:20:32.014Z,7.62
2022-09-15T13:23:04.754Z,7.61
2022-09-15T13:25:34.973Z,7.64
2022-09-15T13:28:05.713Z,7.62
2022-09-15T13:31:08.885Z,7.62
2022-09-15T13:40:50.650Z,7.62
2022-09-15T13:43:41.144Z,7.62
2022-09-15T13:46:42.420Z,7.69
2022-09-15T13:49:46.278Z,7.73
2022-09-15T13:53:01.559Z,7.77
2022-09-15T13:55:36.180Z,7.69
2022-09-15T14:01:12.445Z,7.65
2022-09-15T14:03:47.644Z,7.66
2022-09-15T14:06:28.219Z,7.72
2022-09-15T14:09:05.753Z,7.78
2022-09-15T14:11:39.042Z,7.81
2022-09-15T14:14:40.491Z,7.85
2022-09-15T14:17:25.054Z,7.86
2022-09-15T14:19:57.484Z,7.88
2022-09-15T14:22:36.401Z,7.88
2022-09-15T14:25:21.130Z,7.87
2022-09-15T14:27:54.499Z,7.82
2022-09-15T14:30:33.379Z,7.83
2022-09-15T14:33:05.092Z,7.87
2022-09-15T14:35:40.737Z,7.92
2022-09-15T14:38:27.485Z,7.99
2022-09-15T14:41:00.545Z,8.07
2022-09-15T14:43:36.636Z,8.10
2022-09-15T14:46:21.891Z,8.11
2022-09-15T14:48:51.652Z,8.16
2022-09-15T14:51:34.265Z,8.17
2022-09-15T14:54:05.833Z,8.23
2022-09-15T14:56:38.794Z,8.31
2022-09-15T14:59:20.176Z,8.36
2022-09-15T15:02:39.631Z,8.45
2022-09-15T15:05:20.426Z,8.63
2022-09-15T15:07:51.104Z,8.78
2022-09-15T15:10:35.918Z,8.85
2022-09-15T15:13:18.683Z,8.90
2022-09-15T15:15:48.445Z,9.01
2022-09-15T15:18:40.345Z,9.09
2022-09-15T15:21:38.076Z,9.16
2022-09-15T15:24:20.577Z,9.25
2022-09-15T15:26:52.206Z,9.39
2022-09-15T15:29:44.090Z,9.49
2022-09-15T15:32:21.827Z,9.58
2022-09-15T15:35:02.663Z,9.67
2022-09-15T15:37:36.517Z,9.73
2022-09-15T15:40:14.555Z,9.75
2022-09-15T15:43:08.267Z,9.78
2022-09-15T15:45:51.081Z,9.83
2022-09-15T15:48:20.262Z,9.87
2022-09-15T15:50:49.475Z,9.91
2022-09-15T15:53:18.940Z,9.94
2022-09-15T15:55:48.138Z,10.02
2022-09-15T15:58:18.169Z,10.09
2022-09-15T16:00:51.294Z,10.14
2022-09-15T16:03:23.018Z,10.24
2022-09-15T16:06:01.436Z,10.31
2022-09-15T16:08:35.571Z,10.35
2022-09-15T16:11:05.899Z,10.40
2022-09-15T16:13:35.296Z,10.45
2022-09-15T16:16:17.910Z,10.47
2022-09-15T16:18:47.600Z,10.51
2022-09-15T16:21:44.845Z,10.57
2022-09-15T16:24:17.866Z,10.62
2022-09-15T16:26:48.640Z,10.68
2022-09-15T16:29:21.397Z,10.71
2022-09-15T16:31:51.191Z,10.74
2022-09-15T16:34:20.706Z,10.77
2022-09-15T16:36:49.868Z,10.84
2022-09-15T16:39:22.500Z,10.92
2022-09-15T16:41:51.751Z,10.99
2022-09-15T16:44:22.994Z,11.08
2022-09-15T16:46:52.295Z,11.18
2022-09-15T16:49:21.644Z,11.27
2022-09-15T16:51:51.175Z,11.32
2022-09-15T16:54:23.128Z,11.39
2022-09-15T16:56:53.121Z,11.43
2022-09-15T16:59:22.532Z,11.48
2022-09-15T17:01:52.325Z,11.60
2022-09-15T17:04:21.612Z,11.77
2022-09-15T17:06:50.956Z,11.89
2022-09-15T17:09:20.245Z,11.97
2022-09-15T17:11:50.038Z,12.04
2022-09-15T17:14:19.720Z,12.18
2022-09-15T17:16:53.795Z,12.29
2022-09-15T17:19:23.448Z,12.40
2022-09-15T17:21:54.330Z,12.50
2022-09-15T17:24:23.601Z,12.65
2022-09-15T17:26:52.937Z,12.82
2022-09-15T17:29:22.200Z,12.99
2022-09-15T17:31:51.394Z,13.17
2022-09-15T17:34:20.636Z,13.35
2022-09-15T17:36:49.703Z,13.55
2022-09-15T17:39:19.040Z,13.77
2022-09-15T17:41:48.479Z,13.99
2022-09-15T17:44:17.992Z,14.13
2022-09-15T17:46:47.119Z,14.27
2022-09-15T17:49:16.561Z,14.39
2022-09-15T17:51:45.852Z,14.46
2022-09-15T17:54:15.032Z,14.55
2022-09-15T17:56:47.227Z,14.65
2022-09-15T17:59:17.110Z,14.75
2022-09-15T18:01:46.672Z,14.84
2022-09-15T18:04:15.976Z,14.91
2022-09-15T18:06:45.758Z,15.01
2022-09-15T18:09:16.073Z,15.14
2022-09-15T18:11:45.509Z,15.19
2022-09-15T18:14:14.697Z,15.26
2022-09-15T18:16:44.349Z,15.30
2022-09-15T18:19:13.371Z,15.34
2022-09-15T18:21:43.625Z,15.36
2022-09-15T18:24:17.073Z,15.37
2022-09-15T18:26:46.825Z,15.40
2022-09-15T18:29:15.992Z,15.41
2022-09-15T18:31:45.974Z,15.44
2022-09-15T18:34:15.351Z,15.41
2022-09-15T18:36:44.630Z,15.38
2022-09-15T18:39:13.730Z,15.37
2022-09-15T18:41:43.446Z,15.33
2022-09-15T18:44:13.299Z,15.31
2022-09-15T18:46:42.516Z,15.30
2022-09-15T18:49:11.737Z,15.31
2022-09-15T18:51:51.633Z,15.35
2022-09-15T18:54:21.233Z,15.40
2022-09-15T18:56:50.401Z,15.47
2022-09-15T18:59:20.359Z,15.53
2022-09-15T19:01:49.920Z,15.56
2022-09-15T19:04:19.087Z,15.60
2022-09-15T19:06:48.378Z,15.64
2022-09-15T19:09:17.957Z,15.73
2022-09-15T19:11:47.158Z,15.81
2022-09-15T19:14:16.334Z,15.86
2022-09-15T19:16:57.652Z,15.83
2022-09-15T19:19:28.254Z,15.76
2022-09-15T19:21:57.442Z,15.68
2022-09-15T19:24:33.205Z,15.63
2022-09-15T19:27:07.500Z,15.54
2022-09-15T19:29:38.836Z,15.45
2022-09-15T19:32:12.837Z,15.36
2022-09-15T19:34:45.772Z,15.33
2022-09-15T19:37:20.924Z,15.36
2022-09-15T19:39:51.548Z,15.45
2022-09-15T19:42:20.672Z,15.56
2022-09-15T19:44:50.515Z,15.69
2022-09-15T19:47:20.074Z,15.79
2022-09-15T19:49:49.310Z,15.92
2022-09-15T19:52:18.576Z,16.10
2022-09-15T19:54:49.115Z,16.30
2022-09-15T19:57:18.521Z,16.48
2022-09-15T19:59:47.607Z,16.62
2022-09-15T20:02:17.468Z,16.70
2022-09-15T20:04:47.585Z,16.74
2022-09-15T20:07:16.813Z,16.76
2022-09-15T20:09:46.131Z,16.80
2022-09-15T20:12:15.436Z,16.80
2022-09-15T20:14:44.647Z,16.77
2022-09-15T20:17:14.321Z,16.74
2022-09-15T20:19:43.589Z,16.73
2022-09-15T20:22:12.760Z,16.72
2022-09-15T20:24:42.360Z,16.76
2022-09-15T20:27:12.271Z,16.80
2022-09-15T20:29:41.499Z,16.87
2022-09-15T20:32:11.122Z,16.94
2022-09-15T20:34:40.621Z,16.99
2022-09-15T20:37:09.748Z,17.04
2022-09-15T20:39:39.139Z,17.09
2022-09-15T20:42:08.414Z,17.10
2022-09-15T20:44:37.510Z,17.10
2022-09-15T20:47:06.916Z,17.10
2022-09-15T20:49:36.067Z,17.09
2022-09-15T20:52:05.331Z,17.07
2022-09-15T20:54:35.463Z,17.06
2022-09-15T20:57:04.698Z,17.03
2022-09-15T20:59:33.847Z,17.01
2022-09-15T21:02:06.010Z,17.00
2022-09-15T21:04:35.687Z,17.00
2022-09-15T21:07:05.082Z,16.99
2022-09-15T21:09:37.593Z,17.00
2022-09-15T21:12:07.154Z,16.98
2022-09-15T21:14:36.378Z,16.93
2022-09-15T21:17:05.837Z,16.91
2022-09-15T21:19:35.474Z,16.91
2022-09-15T21:22:04.981Z,16.91
2022-09-15T21:24:34.277Z,16.94
2022-09-15T21:27:24.299Z,16.96
2022-09-15T21:29:53.600Z,16.98
2022-09-15T21:32:23.022Z,16.99
2022-09-15T21:34:51.994Z,17.02
2022-09-15T21:37:21.439Z,17.07
2022-09-15T21:39:51.028Z,17.13
2022-09-15T21:42:20.897Z,17.15
2022-09-15T21:44:49.943Z,17.17
2022-09-15T21:47:20.322Z,17.20
2022-09-15T21:49:49.622Z,17.24
2022-09-15T21:52:18.782Z,17.31
2022-09-15T21:54:48.351Z,17.35
2022-09-15T21:57:17.665Z,17.37
2022-09-15T21:59:47.500Z,17.40
2022-09-15T22:02:18.377Z,17.42
2022-09-15T22:04:47.792Z,17.47
2022-09-15T22:07:18.411Z,17.55
2022-09-15T22:09:48.619Z,17.62
2022-09-15T22:12:17.799Z,17.67
2022-09-15T22:14:47.145Z,17.79
2022-09-15T22:17:16.179Z,17.92
2022-09-15T22:19:45.365Z,18.05
2022-09-15T22:22:15.386Z,18.11
2022-09-15T22:24:44.408Z,18.15
2022-09-15T22:27:13.501Z,18.14
2022-09-15T22:29:43.032Z,18.18
2022-09-15T22:32:11.998Z,18.21
2022-09-15T22:34:41.168Z,18.23
2022-09-15T22:37:10.572Z,18.28
2022-09-15T22:39:57.955Z,18.32
2022-09-15T22:42:28.681Z,18.36
2022-09-15T22:44:58.048Z,18.38
2022-09-15T22:47:27.230Z,18.36
2022-09-15T22:49:56.594Z,18.36
2022-09-15T22:52:25.796Z,18.35
2022-09-15T22:54:54.861Z,18.30
2022-09-15T22:57:23.863Z,18.25
2022-09-15T22:59:53.449Z,18.21
2022-09-15T23:02:23.064Z,18.17
2022-09-15T23:04:55.373Z,18.16
2022-09-15T23:07:24.714Z,18.11
2022-09-15T23:09:54.171Z,18.02
2022-09-15T23:12:23.547Z,17.95
2022-09-15T23:14:52.579Z,17.92
2022-09-15T23:17:21.925Z,17.89
2022-09-15T23:19:51.390Z,17.86
2022-09-15T23:22:20.721Z,17.80
2022-09-15T23:24:50.140Z,17.70
2022-09-15T23:27:19.581Z,17.63
2022-09-15T23:29:48.956Z,17.58
2022-09-15T23:32:18.613Z,17.56
2022-09-15T23:34:47.960Z,17.53
2022-09-15T23:37:17.371Z,17.55
2022-09-15T23:39:46.817Z,17.59
2022-09-15T23:42:18.920Z,17.62
2022-09-15T23:44:49.098Z,17.61
2022-09-15T23:47:18.156Z,17.53
2022-09-15T23:49:47.428Z,17.48
2022-09-15T23:52:16.520Z,17.46
2022-09-15T23:54:49.024Z,17.44
2022-09-15T23:57:18.291Z,17.42
2022-09-15T23:59:48.403Z,17.38
